createdAt,value
2019-02-10T00:00:28.548Z,409.68
2019-02-10T00:01:28.745Z,409.67
2019-02-10T00:02:29.053Z,410.23
2019-02-10T00:03:29.171Z,409.60
2019-02-10T00:04:29.377Z,409.64
2019-02-10T00:05:29.609Z,409.75
2019-02-10T00:06:29.805Z,409.62
2019-02-10T00:07:30.032Z,409.60
2019-02-10T00:08:30.233Z,409.71
2019-02-10T00:09:30.463Z,409.67
2019-02-10T00:10:30.720Z,409.61
2019-02-10T00:11:30.965Z,409.51
2019-02-10T00:12:31.112Z,409.49
2019-02-10T00:13:31.377Z,409.66
2019-02-10T00:14:31.561Z,409.62
2019-02-10T00:15:31.784Z,409.43
2019-02-10T00:16:31.982Z,409.42
2019-02-10T00:17:32.214Z,409.75
2019-02-10T00:18:32.404Z,409.80
2019-02-10T00:19:32.735Z,409.52
2019-02-10T00:20:32.867Z,409.55
2019-02-10T00:21:33.062Z,409.92
2019-02-10T00:22:33.258Z,409.88
2019-02-10T00:23:33.474Z,409.58
2019-02-10T00:24:33.697Z,409.62
2019-02-10T00:25:33.929Z,409.71
2019-02-10T00:26:34.134Z,409.59
2019-02-10T00:27:34.427Z,409.62
2019-02-10T00:28:34.591Z,409.59
2019-02-10T00:29:34.809Z,409.38
2019-02-10T00:30:35.039Z,409.41
2019-02-10T00:31:35.228Z,409.82
2019-02-10T00:32:35.455Z,409.48
2019-02-10T00:33:35.678Z,409.16
2019-02-10T00:34:35.897Z,409.52
2019-02-10T00:35:36.203Z,409.73
2019-02-10T00:36:36.313Z,409.56
2019-02-10T00:37:36.536Z,409.28
2019-02-10T00:38:36.781Z,409.64
2019-02-10T00:39:36.964Z,409.50
2019-02-10T00:40:37.200Z,409.57
2019-02-10T00:41:37.398Z,409.65
2019-02-10T00:42:37.643Z,409.52
2019-02-10T00:43:37.880Z,409.55
2019-02-10T00:44:38.012Z,409.96
2019-02-10T00:45:38.264Z,409.62
2019-02-10T00:46:38.480Z,409.52
2019-02-10T00:47:38.699Z,409.86
2019-02-10T00:48:38.931Z,409.52
2019-02-10T00:49:39.142Z,409.85
2019-02-10T00:50:39.376Z,409.78
2019-02-10T00:51:39.575Z,409.80
2019-02-10T00:52:39.875Z,409.74
2019-02-10T00:53:40.013Z,409.72
2019-02-10T00:54:40.201Z,409.35
2019-02-10T00:55:40.420Z,409.85
2019-02-10T00:56:40.633Z,409.89
2019-02-10T00:57:40.852Z,409.55
2019-02-10T00:58:41.090Z,409.24
2019-02-10T00:59:41.290Z,409.75
2019-02-10T01:00:41.865Z,409.74
2019-02-10T01:01:41.696Z,409.45
2019-02-10T01:02:41.911Z,410.02
2019-02-10T01:03:42.146Z,409.56
2019-02-10T01:04:42.354Z,409.56
2019-02-10T01:05:42.577Z,409.34
2019-02-10T01:06:42.759Z,409.78
2019-02-10T01:07:42.990Z,410.13
2019-02-10T01:08:43.320Z,410.32
2019-02-10T01:09:43.415Z,409.61
2019-02-10T01:10:43.642Z,409.74
2019-02-10T01:11:43.824Z,409.83
2019-02-10T01:12:44.055Z,409.40
2019-02-10T01:13:44.303Z,409.72
2019-02-10T01:14:44.506Z,409.72
2019-02-10T01:15:44.731Z,409.61
2019-02-10T01:16:44.953Z,410.07
2019-02-10T01:17:45.111Z,409.75
2019-02-10T01:18:45.364Z,409.66
2019-02-10T01:19:45.573Z,409.85
2019-02-10T01:20:45.790Z,409.82
2019-02-10T01:21:45.989Z,410.02
2019-02-10T01:22:46.208Z,409.77
2019-02-10T01:23:46.432Z,409.77
2019-02-10T01:24:46.925Z,409.48
2019-02-10T01:25:46.913Z,409.94
2019-02-10T01:26:47.057Z,409.60
2019-02-10T01:27:47.277Z,409.64
2019-02-10T01:28:47.481Z,409.61
2019-02-10T01:29:47.717Z,415.91
2019-02-10T01:30:47.942Z,415.77
2019-02-10T01:31:48.137Z,416.02
2019-02-10T01:32:48.357Z,415.97
2019-02-10T01:33:48.675Z,415.73
2019-02-10T01:34:48.783Z,415.95
2019-02-10T01:35:49.010Z,415.76
2019-02-10T01:36:49.721Z,416.03
2019-02-10T01:37:49.420Z,415.98
2019-02-10T01:38:49.635Z,415.86
2019-02-10T01:39:49.858Z,416.00
2019-02-10T01:40:50.072Z,416.06
2019-02-10T01:41:50.415Z,415.90
2019-02-10T01:42:50.504Z,415.90
2019-02-10T01:43:50.720Z,415.80
2019-02-10T01:44:50.951Z,416.13
2019-02-10T01:45:51.146Z,416.14
2019-02-10T01:46:51.381Z,415.67
2019-02-10T01:47:51.591Z,415.99
2019-02-10T01:48:51.837Z,415.91
2019-02-10T01:49:52.039Z,415.89
2019-02-10T01:50:52.218Z,415.88
2019-02-10T01:51:52.456Z,416.02
2019-02-10T01:52:52.656Z,416.02
2019-02-10T01:53:52.909Z,415.90
2019-02-10T01:54:53.084Z,415.82
2019-02-10T01:55:53.300Z,416.10
2019-02-10T01:56:53.542Z,416.04
2019-02-10T01:57:53.781Z,415.92
2019-02-10T01:58:53.949Z,415.75
2019-02-10T01:59:54.158Z,415.75
2019-02-10T02:00:54.356Z,415.71
2019-02-10T02:01:54.608Z,415.75
2019-02-10T02:02:54.799Z,416.06
2019-02-10T02:03:55.043Z,415.86
2019-02-10T02:04:55.254Z,415.85
2019-02-10T02:05:55.459Z,416.08
2019-02-10T02:06:57.821Z,415.75
2019-02-10T02:07:55.904Z,416.09
2019-02-10T02:08:56.135Z,415.71
2019-02-10T02:09:56.347Z,416.06
2019-02-10T02:10:56.547Z,415.56
2019-02-10T02:11:56.817Z,415.81
2019-02-10T02:12:56.980Z,415.73
2019-02-10T02:13:57.215Z,415.80
2019-02-10T02:14:57.540Z,415.92
2019-02-10T02:15:57.608Z,416.12
2019-02-10T02:16:57.853Z,415.70
2019-02-10T02:17:58.046Z,416.13
2019-02-10T02:18:58.279Z,415.90
2019-02-10T02:19:58.496Z,415.69
2019-02-10T02:20:58.700Z,416.14
2019-02-10T02:21:58.911Z,415.76
2019-02-10T02:22:59.227Z,415.93
2019-02-10T02:23:59.364Z,416.00
2019-02-10T02:24:59.579Z,415.87
2019-02-10T02:25:59.777Z,415.96
2019-02-10T02:26:59.993Z,416.05
2019-02-10T02:28:00.206Z,416.26
2019-02-10T02:29:00.455Z,416.08
2019-02-10T02:30:00.980Z,416.26
2019-02-10T02:31:00.896Z,416.05
2019-02-10T02:32:01.086Z,416.24
2019-02-10T02:33:01.269Z,416.21
2019-02-10T02:34:01.512Z,416.10
2019-02-10T02:35:01.732Z,416.18
2019-02-10T02:36:01.929Z,416.23
2019-02-10T02:37:07.585Z,416.30
2019-02-10T02:38:03.348Z,416.08
2019-02-10T02:39:02.825Z,416.09
2019-02-10T02:40:02.806Z,416.22
2019-02-10T02:41:02.991Z,416.15
2019-02-10T02:42:03.232Z,416.06
2019-02-10T02:43:03.432Z,415.94
2019-02-10T02:44:03.620Z,416.01
2019-02-10T02:45:03.868Z,416.21
2019-02-10T02:46:04.090Z,416.21
2019-02-10T02:47:04.338Z,416.18
2019-02-10T02:48:04.621Z,416.47
2019-02-10T02:49:04.733Z,416.21
2019-02-10T02:50:04.987Z,416.10
2019-02-10T02:51:05.250Z,415.98
2019-02-10T02:52:05.425Z,416.23
2019-02-10T02:53:05.624Z,415.93
2019-02-10T02:54:05.840Z,416.24
2019-02-10T02:55:06.060Z,416.25
2019-02-10T02:56:06.376Z,416.29
2019-02-10T02:57:06.518Z,416.27
2019-02-10T02:58:06.712Z,416.30
2019-02-10T02:59:06.913Z,416.45
2019-02-10T03:00:07.171Z,416.20
2019-02-10T03:01:07.371Z,416.45
2019-02-10T03:02:07.620Z,416.37
2019-02-10T03:03:07.797Z,416.33
2019-02-10T03:04:08.068Z,416.38
2019-02-10T03:05:08.232Z,416.40
2019-02-10T03:06:08.432Z,416.37
2019-02-10T03:07:17.508Z,416.24
2019-02-10T03:08:09.857Z,416.24
2019-02-10T03:09:09.073Z,416.06
2019-02-10T03:10:09.320Z,416.32
2019-02-10T03:11:09.488Z,416.46
2019-02-10T03:12:09.814Z,416.08
2019-02-10T03:13:09.910Z,416.16
2019-02-10T03:14:10.139Z,416.27
2019-02-10T03:15:10.369Z,415.94
2019-02-10T03:16:10.546Z,416.43
2019-02-10T03:17:10.782Z,416.31
2019-02-10T03:18:11.001Z,416.16
2019-02-10T03:19:11.218Z,416.18
2019-02-10T03:20:11.493Z,416.43
2019-02-10T03:21:11.680Z,416.13
2019-02-10T03:22:11.873Z,416.15
2019-02-10T03:23:12.082Z,416.04
2019-02-10T03:24:12.298Z,416.33
2019-02-10T03:25:12.566Z,416.57
2019-02-10T03:26:12.727Z,416.27
2019-02-10T03:27:12.957Z,416.39
2019-02-10T03:28:13.143Z,416.06
2019-02-10T03:29:13.437Z,416.33
2019-02-10T03:30:13.632Z,416.63
2019-02-10T03:31:13.796Z,416.06
2019-02-10T03:32:14.015Z,416.18
2019-02-10T03:33:14.363Z,416.24
2019-02-10T03:34:14.428Z,416.42
2019-02-10T03:35:14.677Z,416.13
2019-02-10T03:36:14.872Z,416.22
2019-02-10T03:37:15.193Z,416.35
2019-02-10T03:38:15.288Z,416.20
2019-02-10T03:39:15.536Z,416.17
2019-02-10T03:40:15.754Z,416.08
2019-02-10T03:41:15.935Z,416.14
2019-02-10T03:42:16.160Z,416.24
2019-02-10T03:43:16.353Z,416.03
2019-02-10T03:44:16.583Z,416.55
2019-02-10T03:45:16.893Z,416.34
2019-02-10T03:46:16.995Z,416.28
2019-02-10T03:47:17.218Z,416.38
2019-02-10T03:48:17.414Z,416.39
2019-02-10T03:49:17.646Z,416.57
2019-02-10T03:50:17.940Z,416.04
2019-02-10T03:51:18.092Z,416.38
2019-02-10T03:52:18.303Z,416.19
2019-02-10T03:53:18.572Z,416.57
2019-02-10T03:54:18.709Z,416.33
2019-02-10T03:55:19.012Z,416.26
2019-02-10T03:56:19.174Z,416.17
2019-02-10T03:57:19.391Z,416.24
2019-02-10T03:58:19.621Z,416.39
2019-02-10T03:59:19.837Z,416.20
2019-02-10T04:00:20.089Z,416.23
2019-02-10T04:01:20.284Z,416.49
2019-02-10T04:02:20.583Z,416.47
2019-02-10T04:03:20.732Z,416.36
2019-02-10T04:04:20.907Z,416.23
2019-02-10T04:05:21.181Z,416.36
2019-02-10T04:06:21.394Z,416.31
2019-02-10T04:07:21.591Z,416.23
2019-02-10T04:08:21.821Z,416.23
2019-02-10T04:09:22.020Z,416.32
2019-02-10T04:10:22.347Z,416.32
2019-02-10T04:11:22.460Z,416.23
2019-02-10T04:12:22.659Z,416.66
2019-02-10T04:13:22.902Z,416.30
2019-02-10T04:14:23.093Z,416.51
2019-02-10T04:15:23.319Z,416.26
2019-02-10T04:16:23.530Z,416.36
2019-02-10T04:17:23.744Z,415.93
2019-02-10T04:18:24.274Z,416.20
2019-02-10T04:19:24.160Z,416.43
2019-02-10T04:20:24.382Z,416.35
2019-02-10T04:21:24.596Z,416.35
2019-02-10T04:22:24.821Z,416.38
2019-02-10T04:23:25.051Z,416.44
2019-02-10T04:24:25.251Z,416.58
2019-02-10T04:25:25.481Z,416.38
2019-02-10T04:26:25.724Z,416.43
2019-02-10T04:27:25.873Z,416.39
2019-02-10T04:28:26.117Z,416.30
2019-02-10T04:29:26.313Z,416.31
2019-02-10T04:30:26.627Z,416.31
2019-02-10T04:31:26.746Z,416.50
2019-02-10T04:32:26.937Z,416.19
2019-02-10T04:33:27.187Z,416.10
2019-02-10T04:34:27.423Z,416.13
2019-02-10T04:35:27.663Z,416.51
2019-02-10T04:36:27.825Z,416.45
2019-02-10T04:37:28.008Z,416.55
2019-02-10T04:38:28.263Z,416.33
2019-02-10T04:39:28.461Z,416.34
2019-02-10T04:40:28.693Z,416.31
2019-02-10T04:41:28.936Z,416.23
2019-02-10T04:42:29.124Z,416.26
2019-02-10T04:43:29.415Z,416.35
2019-02-10T04:44:29.541Z,416.20
2019-02-10T04:45:29.766Z,416.31
2019-02-10T04:46:29.974Z,416.35
2019-02-10T04:47:30.165Z,416.36
2019-02-10T04:48:30.410Z,416.33
2019-02-10T04:49:30.622Z,416.28
2019-02-10T04:50:30.829Z,416.35
2019-02-10T04:51:31.207Z,416.16
2019-02-10T04:52:31.251Z,416.44
2019-02-10T04:53:31.504Z,416.38
2019-02-10T04:54:31.700Z,416.15
2019-02-10T04:55:31.921Z,416.17
2019-02-10T04:56:32.165Z,416.22
2019-02-10T04:57:32.364Z,416.64
2019-02-10T04:58:32.577Z,416.42
2019-02-10T04:59:32.840Z,416.35
2019-02-10T05:00:33.004Z,416.21
2019-02-10T05:01:33.261Z,416.38
2019-02-10T05:02:33.469Z,416.18
2019-02-10T05:03:33.678Z,416.38
2019-02-10T05:04:33.892Z,416.30
2019-02-10T05:05:34.125Z,416.47
2019-02-10T05:06:34.362Z,416.25
2019-02-10T05:07:34.617Z,416.18
2019-02-10T05:08:34.767Z,416.62
2019-02-10T05:09:34.949Z,416.28
2019-02-10T05:10:35.181Z,416.41
2019-02-10T05:11:35.435Z,416.34
2019-02-10T05:12:35.619Z,416.24
2019-02-10T05:13:35.844Z,416.12
2019-02-10T05:14:36.048Z,416.43
2019-02-10T05:15:36.277Z,416.15
2019-02-10T05:16:36.557Z,416.33
2019-02-10T05:17:36.697Z,416.25
2019-02-10T05:18:36.911Z,416.35
2019-02-10T05:19:37.108Z,416.07
2019-02-10T05:20:37.325Z,416.13
2019-02-10T05:21:37.577Z,416.26
2019-02-10T05:22:39.275Z,416.50
2019-02-10T05:23:38.010Z,416.57
2019-02-10T05:24:38.330Z,416.32
2019-02-10T05:25:38.415Z,416.37
2019-02-10T05:26:38.658Z,416.40
2019-02-10T05:27:38.845Z,416.31
2019-02-10T05:28:39.079Z,416.31
2019-02-10T05:29:39.270Z,416.30
2019-02-10T05:30:39.474Z,416.42
2019-02-10T05:31:39.750Z,416.48
2019-02-10T05:32:40.017Z,410.12
2019-02-10T05:33:40.160Z,410.06
2019-02-10T05:34:40.353Z,410.08
2019-02-10T05:35:40.561Z,409.92
2019-02-10T05:36:40.815Z,410.00
2019-02-10T05:37:41.005Z,410.26
2019-02-10T05:38:41.236Z,410.28
2019-02-10T05:39:41.435Z,410.18
2019-02-10T05:40:41.669Z,409.84
2019-02-10T05:41:41.857Z,409.77
2019-02-10T05:42:42.069Z,409.82
2019-02-10T05:43:42.300Z,410.18
2019-02-10T05:44:42.499Z,409.95
2019-02-10T05:45:42.715Z,410.10
2019-02-10T05:46:42.957Z,410.06
2019-02-10T05:47:43.125Z,410.03
2019-02-10T05:48:43.418Z,410.05
2019-02-10T05:49:43.563Z,410.29
2019-02-10T05:50:43.797Z,410.14
2019-02-10T05:51:44.082Z,410.31
2019-02-10T05:52:44.206Z,410.18
2019-02-10T05:53:44.458Z,410.32
2019-02-10T05:54:44.661Z,410.36
2019-02-10T05:55:44.868Z,410.11
2019-02-10T05:56:45.136Z,410.33
2019-02-10T05:57:45.434Z,410.22
2019-02-10T05:58:45.750Z,410.33
2019-02-10T05:59:45.745Z,410.21
2019-02-10T06:00:45.966Z,410.36
2019-02-10T06:01:46.210Z,410.10
2019-02-10T06:02:46.397Z,410.20
2019-02-10T06:03:46.653Z,410.24
2019-02-10T06:04:46.841Z,410.35
2019-02-10T06:05:47.208Z,410.10
2019-02-10T06:06:47.347Z,410.32
2019-02-10T06:07:47.488Z,410.10
2019-02-10T06:08:47.723Z,410.28
2019-02-10T06:09:48.027Z,410.13
2019-02-10T06:10:48.174Z,410.38
2019-02-10T06:11:48.433Z,410.39
2019-02-10T06:12:48.607Z,410.44
2019-02-10T06:13:48.848Z,410.35
2019-02-10T06:14:49.040Z,410.17
2019-02-10T06:15:49.240Z,410.04
2019-02-10T06:16:49.504Z,410.27
2019-02-10T06:17:49.673Z,410.68
2019-02-10T06:18:49.870Z,410.36
2019-02-10T06:19:50.102Z,410.34
2019-02-10T06:20:50.319Z,410.22
2019-02-10T06:21:50.631Z,410.05
2019-02-10T06:22:50.728Z,410.33
2019-02-10T06:23:50.955Z,410.33
2019-02-10T06:24:51.164Z,410.17
2019-02-10T06:25:51.381Z,410.43
2019-02-10T06:26:51.655Z,410.27
2019-02-10T06:27:51.824Z,410.63
2019-02-10T06:28:52.046Z,410.09
2019-02-10T06:29:52.332Z,410.37
2019-02-10T06:30:52.499Z,410.25
2019-02-10T06:31:52.744Z,410.45
2019-02-10T06:32:52.906Z,410.18
2019-02-10T06:33:53.111Z,410.40
2019-02-10T06:34:53.364Z,410.08
2019-02-10T06:35:53.536Z,409.99
2019-02-10T06:36:53.847Z,410.28
2019-02-10T06:37:54.020Z,410.27
2019-02-10T06:38:54.352Z,410.37
2019-02-10T06:39:54.428Z,410.31
2019-02-10T06:40:54.625Z,410.04
2019-02-10T06:41:54.883Z,410.73
2019-02-10T06:42:55.084Z,410.33
2019-02-10T06:43:55.283Z,410.21
2019-02-10T06:44:55.515Z,410.25
2019-02-10T06:45:55.711Z,410.09
2019-02-10T06:46:56.004Z,410.12
2019-02-10T06:47:57.662Z,410.10
2019-02-10T06:48:56.360Z,410.32
2019-02-10T06:49:56.600Z,410.38
2019-02-10T06:50:56.776Z,410.20
2019-02-10T06:51:57.023Z,410.16
2019-02-10T06:52:57.246Z,410.49
2019-02-10T06:53:57.450Z,410.20
2019-02-10T06:54:57.738Z,410.63
2019-02-10T06:55:57.862Z,410.13
2019-02-10T06:56:58.077Z,410.22
2019-02-10T06:57:58.318Z,410.32
2019-02-10T06:58:58.510Z,410.02
2019-02-10T06:59:58.753Z,410.14
2019-02-10T07:00:58.946Z,410.10
2019-02-10T07:01:59.163Z,410.41
2019-02-10T07:02:59.399Z,410.08
2019-02-10T07:03:59.568Z,410.06
2019-02-10T07:04:59.801Z,410.06
2019-02-10T07:06:00.013Z,410.66
2019-02-10T07:07:00.240Z,410.09
2019-02-10T07:08:00.455Z,410.36
2019-02-10T07:09:00.684Z,410.32
2019-02-10T07:10:00.931Z,410.45
2019-02-10T07:11:01.174Z,410.17
2019-02-10T07:12:01.428Z,410.02
2019-02-10T07:13:01.567Z,410.41
2019-02-10T07:14:01.774Z,410.48
2019-02-10T07:15:02.009Z,410.02
2019-02-10T07:16:02.204Z,410.33
2019-02-10T07:17:02.421Z,410.25
2019-02-10T07:18:02.664Z,410.10
2019-02-10T07:19:02.843Z,410.17
2019-02-10T07:20:03.196Z,410.35
2019-02-10T07:21:03.289Z,409.85
2019-02-10T07:22:03.492Z,410.46
2019-02-10T07:23:03.735Z,410.47
2019-02-10T07:24:03.909Z,410.05
2019-02-10T07:25:04.158Z,410.20
2019-02-10T07:26:04.362Z,410.35
2019-02-10T07:27:04.580Z,410.20
2019-02-10T07:28:05.047Z,410.20
2019-02-10T07:29:04.996Z,410.42
2019-02-10T07:30:05.242Z,409.89
2019-02-10T07:31:05.443Z,410.32
2019-02-10T07:32:05.660Z,410.18
2019-02-10T07:33:06.189Z,410.23
2019-02-10T07:34:06.079Z,410.22
2019-02-10T07:35:06.332Z,410.32
2019-02-10T07:36:06.615Z,410.18
2019-02-10T07:37:06.959Z,410.01
2019-02-10T07:38:07.022Z,410.14
2019-02-10T07:39:07.172Z,410.33
2019-02-10T07:40:07.391Z,410.20
2019-02-10T07:41:07.577Z,410.15
2019-02-10T07:42:07.810Z,410.20
2019-02-10T07:43:08.072Z,410.15
2019-02-10T07:44:08.277Z,410.35
2019-02-10T07:45:08.474Z,410.31
2019-02-10T07:46:08.661Z,410.25
2019-02-10T07:47:08.892Z,410.15
2019-02-10T07:48:09.139Z,410.18
2019-02-10T07:49:09.321Z,410.07
2019-02-10T07:50:09.570Z,410.03
2019-02-10T07:51:09.747Z,410.50
2019-02-10T07:52:09.960Z,410.07
2019-02-10T07:53:10.314Z,410.45
2019-02-10T07:54:10.399Z,410.16
2019-02-10T07:55:10.644Z,410.14
2019-02-10T07:56:10.812Z,410.20
2019-02-10T07:57:11.043Z,409.72
2019-02-10T07:58:11.273Z,410.09
2019-02-10T07:59:11.473Z,410.32
2019-02-10T08:00:11.710Z,410.00
2019-02-10T08:01:12.018Z,410.07
2019-02-10T08:02:12.120Z,410.18
2019-02-10T08:03:12.351Z,410.01
2019-02-10T08:04:12.569Z,410.14
2019-02-10T08:05:12.792Z,410.06
2019-02-10T08:06:12.967Z,410.16
2019-02-10T08:07:13.183Z,410.46
2019-02-10T08:08:13.437Z,410.29
2019-02-10T08:09:13.675Z,410.18
2019-02-10T08:10:13.839Z,410.26
2019-02-10T08:11:14.064Z,410.52
2019-02-10T08:12:14.269Z,410.22
2019-02-10T08:13:14.513Z,410.58
2019-02-10T08:14:14.812Z,410.15
2019-02-10T08:15:14.927Z,410.33
2019-02-10T08:16:15.162Z,410.00
2019-02-10T08:17:15.452Z,410.17
2019-02-10T08:18:15.562Z,409.90
2019-02-10T08:19:15.781Z,409.98
2019-02-10T08:20:15.997Z,410.21
2019-02-10T08:21:16.221Z,410.12
2019-02-10T08:22:16.432Z,410.38
2019-02-10T08:23:16.669Z,410.31
2019-02-10T08:24:21.173Z,410.30
2019-02-10T08:25:17.099Z,410.30
2019-02-10T08:26:17.345Z,410.19
2019-02-10T08:27:17.504Z,410.14
2019-02-10T08:28:17.766Z,410.24
2019-02-10T08:29:17.936Z,410.04
2019-02-10T08:30:18.150Z,410.40
2019-02-10T08:31:18.383Z,410.09
2019-02-10T08:32:18.583Z,410.16
2019-02-10T08:33:18.833Z,410.22
2019-02-10T08:34:19.103Z,409.93
2019-02-10T08:35:19.226Z,410.32
2019-02-10T08:36:19.458Z,410.29
2019-02-10T08:37:19.656Z,410.18
2019-02-10T08:38:19.884Z,410.10
2019-02-10T08:39:20.077Z,410.26
2019-02-10T08:40:20.298Z,410.26
2019-02-10T08:41:20.546Z,409.87
2019-02-10T08:42:20.887Z,410.03
2019-02-10T08:43:20.975Z,410.22
2019-02-10T08:44:21.186Z,410.23
2019-02-10T08:45:21.384Z,410.08
2019-02-10T08:46:21.618Z,410.08
2019-02-10T08:47:21.831Z,410.10
2019-02-10T08:48:22.052Z,410.06
2019-02-10T08:49:22.247Z,409.76
2019-02-10T08:50:22.535Z,409.92
2019-02-10T08:51:22.678Z,410.05
2019-02-10T08:52:22.896Z,410.03
2019-02-10T08:53:23.117Z,410.20
2019-02-10T08:54:23.334Z,410.16
2019-02-10T08:55:23.530Z,409.93
2019-02-10T08:56:23.748Z,410.26
2019-02-10T08:57:24.157Z,410.26
2019-02-10T08:58:24.221Z,409.89
2019-02-10T08:59:24.366Z,410.18
2019-02-10T09:00:24.598Z,410.42
2019-02-10T09:01:24.820Z,410.35
2019-02-10T09:02:25.038Z,410.15
2019-02-10T09:03:25.282Z,409.83
2019-02-10T09:04:25.500Z,409.94
2019-02-10T09:05:25.696Z,410.35
2019-02-10T09:06:26.407Z,410.32
2019-02-10T09:07:26.336Z,409.82
2019-02-10T09:08:26.337Z,409.99
2019-02-10T09:09:26.556Z,410.04
2019-02-10T09:10:26.770Z,410.04
2019-02-10T09:11:27.002Z,409.98
2019-02-10T09:12:27.205Z,409.98
2019-02-10T09:13:27.427Z,409.80
2019-02-10T09:14:27.888Z,409.95
2019-02-10T09:15:28.038Z,409.74
2019-02-10T09:16:28.081Z,410.11
2019-02-10T09:17:28.285Z,410.11
2019-02-10T09:18:28.503Z,409.93
2019-02-10T09:19:28.735Z,410.02
2019-02-10T09:20:28.944Z,410.18
2019-02-10T09:21:29.173Z,409.95
2019-02-10T09:22:29.383Z,409.80
2019-02-10T09:23:29.658Z,409.94
2019-02-10T09:24:29.805Z,409.93
2019-02-10T09:25:30.001Z,409.71
2019-02-10T09:26:30.248Z,409.86
2019-02-10T09:27:30.436Z,409.62
2019-02-10T09:28:30.637Z,409.91
2019-02-10T09:29:30.881Z,409.82
2019-02-10T09:30:31.093Z,409.97
2019-02-10T09:31:33.107Z,409.93
2019-02-10T09:32:31.485Z,409.92
2019-02-10T09:33:31.756Z,409.69
2019-02-10T09:34:31.943Z,409.77
2019-02-10T09:35:32.149Z,409.51
2019-02-10T09:36:32.372Z,409.92
2019-02-10T09:37:32.573Z,409.97
2019-02-10T09:38:32.782Z,409.70
2019-02-10T09:39:33.048Z,409.74
2019-02-10T09:40:33.295Z,409.99
2019-02-10T09:41:33.460Z,409.95
2019-02-10T09:42:34.409Z,409.77
2019-02-10T09:43:33.873Z,409.94
2019-02-10T09:44:34.092Z,409.89
2019-02-10T09:45:34.311Z,409.96
2019-02-10T09:46:34.553Z,410.16
2019-02-10T09:47:34.753Z,409.73
2019-02-10T09:48:35.085Z,409.86
2019-02-10T09:49:35.184Z,409.83
2019-02-10T09:50:35.402Z,409.63
2019-02-10T09:51:35.627Z,409.91
2019-02-10T09:52:35.828Z,409.83
2019-02-10T09:53:36.417Z,409.92
2019-02-10T09:54:36.273Z,410.04
2019-02-10T09:55:36.463Z,409.86
2019-02-10T09:56:37.410Z,410.03
2019-02-10T09:57:36.896Z,410.21
2019-02-10T09:58:37.116Z,410.00
2019-02-10T09:59:37.332Z,409.96
2019-02-10T10:00:37.557Z,409.97
2019-02-10T10:01:37.776Z,410.05
2019-02-10T10:02:37.980Z,409.76
2019-02-10T10:03:38.189Z,410.08
2019-02-10T10:04:38.441Z,410.03
2019-02-10T10:05:38.597Z,409.98
2019-02-10T10:06:38.842Z,410.34
2019-02-10T10:07:39.037Z,409.99
2019-02-10T10:08:39.245Z,410.25
2019-02-10T10:09:39.487Z,409.97
2019-02-10T10:10:39.676Z,410.33
2019-02-10T10:11:39.901Z,409.87
2019-02-10T10:12:40.172Z,409.88
2019-02-10T10:13:40.304Z,410.24
2019-02-10T10:14:40.547Z,409.90
2019-02-10T10:15:40.753Z,410.14
2019-02-10T10:16:40.963Z,410.43
2019-02-10T10:17:41.181Z,410.30
2019-02-10T10:18:41.397Z,410.43
2019-02-10T10:19:41.629Z,409.84
2019-02-10T10:20:41.888Z,410.11
2019-02-10T10:21:42.098Z,410.08
2019-02-10T10:22:42.299Z,410.11
2019-02-10T10:23:42.468Z,410.01
2019-02-10T10:24:49.315Z,410.51
2019-02-10T10:25:43.891Z,409.92
2019-02-10T10:26:43.113Z,410.26
2019-02-10T10:27:43.374Z,410.49
2019-02-10T10:28:43.570Z,410.06
2019-02-10T10:29:43.913Z,409.89
2019-02-10T10:30:43.994Z,416.60
2019-02-10T10:31:44.196Z,416.68
2019-02-10T10:32:44.442Z,416.51
2019-02-10T10:33:44.664Z,416.70
2019-02-10T10:34:44.894Z,416.46
2019-02-10T10:35:45.143Z,416.42
2019-02-10T10:36:45.310Z,416.81
2019-02-10T10:37:45.648Z,410.54
2019-02-10T10:38:45.735Z,416.37
2019-02-10T10:39:45.967Z,416.80
2019-02-10T10:40:46.163Z,416.48
2019-02-10T10:41:46.379Z,416.59
2019-02-10T10:42:46.607Z,416.49
2019-02-10T10:43:46.812Z,416.21
2019-02-10T10:44:47.050Z,416.48
2019-02-10T10:45:47.314Z,416.50
2019-02-10T10:46:47.450Z,416.32
2019-02-10T10:47:47.693Z,416.86
2019-02-10T10:48:47.869Z,416.17
2019-02-10T10:49:48.119Z,416.63
2019-02-10T10:50:48.325Z,416.37
2019-02-10T10:51:48.527Z,416.44
2019-02-10T10:52:48.987Z,416.30
2019-02-10T10:53:48.972Z,416.60
2019-02-10T10:54:49.184Z,416.63
2019-02-10T10:55:49.418Z,416.62
2019-02-10T10:56:49.623Z,416.50
2019-02-10T10:57:49.856Z,416.63
2019-02-10T10:58:50.047Z,410.31
2019-02-10T10:59:50.295Z,410.46
2019-02-10T11:00:50.479Z,410.27
2019-02-10T11:01:50.717Z,410.25
2019-02-10T11:02:51.030Z,410.34
2019-02-10T11:03:51.127Z,410.17
2019-02-10T11:04:51.348Z,410.65
2019-02-10T11:05:51.600Z,410.29
2019-02-10T11:06:51.787Z,410.34
2019-02-10T11:07:52.062Z,410.14
2019-02-10T11:08:52.216Z,410.35
2019-02-10T11:09:52.447Z,409.95
2019-02-10T11:10:52.716Z,410.35
2019-02-10T11:11:52.857Z,410.77
2019-02-10T11:12:53.099Z,410.10
2019-02-10T11:13:53.291Z,410.19
2019-02-10T11:14:53.528Z,410.12
2019-02-10T11:15:53.702Z,410.05
2019-02-10T11:16:53.949Z,410.26
2019-02-10T11:17:54.180Z,410.21
2019-02-10T11:18:54.435Z,410.33
2019-02-10T11:19:54.582Z,410.30
2019-02-10T11:20:54.775Z,410.40
2019-02-10T11:21:55.015Z,410.30
2019-02-10T11:22:55.233Z,410.33
2019-02-10T11:23:55.433Z,410.88
2019-02-10T11:24:55.650Z,410.27
2019-02-10T11:25:55.863Z,410.45
2019-02-10T11:26:56.125Z,410.53
2019-02-10T11:27:56.295Z,410.26
2019-02-10T11:28:56.499Z,410.34
2019-02-10T11:29:56.708Z,410.40
2019-02-10T11:30:56.945Z,410.09
2019-02-10T11:31:57.150Z,410.36
2019-02-10T11:32:57.378Z,410.07
2019-02-10T11:33:57.600Z,410.32
2019-02-10T11:34:57.841Z,410.25
2019-02-10T11:35:58.092Z,410.56
2019-02-10T11:36:58.277Z,410.43
2019-02-10T11:37:58.541Z,410.40
2019-02-10T11:38:58.706Z,410.66
2019-02-10T11:39:58.916Z,410.39
2019-02-10T11:40:59.149Z,410.46
2019-02-10T11:41:59.350Z,410.64
2019-02-10T11:43:00.051Z,410.42
2019-02-10T11:43:59.885Z,410.55
2019-02-10T11:45:00.007Z,410.10
2019-02-10T11:46:00.237Z,410.47
2019-02-10T11:47:00.443Z,410.32
2019-02-10T11:48:00.653Z,410.18
2019-02-10T11:49:00.861Z,410.56
2019-02-10T11:50:01.079Z,410.45
2019-02-10T11:51:01.309Z,410.30
2019-02-10T11:52:01.638Z,410.39
2019-02-10T11:53:01.740Z,416.95
2019-02-10T11:54:01.958Z,416.71
2019-02-10T11:55:02.169Z,416.62
2019-02-10T11:56:02.392Z,416.81
2019-02-10T11:57:02.615Z,416.69
2019-02-10T11:58:02.817Z,416.90
2019-02-10T11:59:03.013Z,416.70
2019-02-10T12:00:03.311Z,416.82
2019-02-10T12:01:03.509Z,416.80
2019-02-10T12:02:03.678Z,416.52
2019-02-10T12:03:03.902Z,416.58
2019-02-10T12:04:04.081Z,416.85
2019-02-10T12:05:04.313Z,416.60
2019-02-10T12:06:04.559Z,416.79
2019-02-10T12:07:04.771Z,416.71
2019-02-10T12:08:05.041Z,416.66
2019-02-10T12:09:05.149Z,416.83
2019-02-10T12:10:05.373Z,416.65
2019-02-10T12:11:05.627Z,410.30
2019-02-10T12:12:06.119Z,416.98
2019-02-10T12:13:06.059Z,416.92
2019-02-10T12:14:06.254Z,416.70
2019-02-10T12:15:06.471Z,416.84
2019-02-10T12:16:06.708Z,416.86
2019-02-10T12:17:06.989Z,416.90
2019-02-10T12:18:07.116Z,416.91
2019-02-10T12:19:07.329Z,416.84
2019-02-10T12:20:07.527Z,416.93
2019-02-10T12:21:07.776Z,416.93
2019-02-10T12:22:07.977Z,416.73
2019-02-10T12:23:08.210Z,416.95
2019-02-10T12:24:08.414Z,416.78
2019-02-10T12:25:08.725Z,416.75
2019-02-10T12:26:08.863Z,416.83
2019-02-10T12:27:09.070Z,416.77
2019-02-10T12:28:09.269Z,416.81
2019-02-10T12:29:09.483Z,416.89
2019-02-10T12:30:09.689Z,417.15
2019-02-10T12:31:09.945Z,416.89